Date,TemperatureHighF,TemperatureAvgF,TemperatureLowF,DewpointHighF,DewpointAvgF,DewpointLowF,HumidityHigh,HumidityAvg,HumidityLow,PressureMaxIn,PressureMinIn,WindSpeedMaxMPH,WindSpeedAvgMPH,GustSpeedMaxMPH,PrecipitationSumIn
2013-1-18,15.8,15.0,14.2,8.3,7.1,5.2,73,70,65,30.38,30.32,0,0,0,0.00
2013-1-27,28.2,19.9,9.5,24.0,12.7,3.2,84,74,64,30.41,30.08,0,0,0,0.00
2013-1-28,43.3,35.7,29.5,40.0,32.2,25.2,89,87,84,30.08,29.83,0,0,0,0.00
2013-1-29,54.0,44.1,33.6,51.4,41.1,30.4,91,90,88,29.98,29.48,0,0,0,0.00
2013-1-30,56.8,47.8,32.7,53.9,44.7,28.4,90,89,84,29.43,29.14,0,0,0,0.00
2013-1-31,30.0,21.3,14.7,24.9,14.6,9.9,81,75,68,29.84,29.28,0,0,0,0.00
2013-2-1,17.4,12.9,7.7,10.9,6.7,0.9,81,76,70,30.21,29.85,0,0,0,0.00
2013-2-2,22.6,17.4,7.7,16.8,11.3,1.7,80,77,74,30.15,29.90,0,0,0,12.91
2013-2-3,21.4,12.1,1.0,15.0,5.9,-4.6,81,76,69,29.96,29.80,0,0,0,0.00
2013-2-4,23.4,19.1,15.4,17.2,13.1,7.5,80,77,70,29.97,29.83,0,0,0,0.00
2013-2-5,26.8,19.8,4.6,22.2,14.0,-0.8,83,78,71,29.92,29.77,0,0,0,0.00
2013-2-6,29.5,22.2,8.8,20.9,14.9,3.6,83,73,63,30.25,29.92,0,0,0,0.00
2013-2-7,37.2,29.3,23.4,27.6,21.2,15.3,75,72,67,30.23,29.90,0,0,0,0.00
2013-2-8,28.6,24.8,13.8,24.0,19.3,7.7,85,79,72,30.29,29.77,0,0,0,0.00
2013-2-9,29.7,17.6,1.8,20.9,10.8,-3.5,84,74,64,30.39,30.23,0,0,0,0.00
2013-2-10,37.2,28.6,18.5,32.4,22.6,13.9,85,78,66,30.22,29.67,0,0,0,0.00
2013-2-11,42.3,35.7,30.7,39.0,29.5,23.8,88,78,70,29.83,29.54,0,0,0,0.00
2013-2-12,31.6,29.5,27.1,23.8,22.0,19.6,76,73,71,30.00,29.84,0,0,0,0.00
2013-2-13,37.4,29.6,25.5,25.7,21.4,19.0,76,71,62,29.90,29.70,0,0,0,0.00
2013-2-14,37.0,32.8,24.1,31.4,26.5,18.5,84,77,75,29.82,29.65,0,0,0,12.91
2013-2-15,32.7,26.7,21.6,26.3,16.8,11.7,77,66,57,30.08,29.82,0,0,0,0.00
2013-2-16,25.5,18.7,14.4,18.0,11.5,7.6,77,73,66,30.06,29.97,0,0,0,0.00
2013-2-23,30.7,28.8,27.0,26.8,23.3,20.5,85,80,76,29.88,29.84,0,0,0,0.00
2013-3-4,30.9,17.4,10.9,20.7,11.0,5.3,81,76,64,30.11,30.03,0,0,0,0.00
2013-3-11,47.1,40.8,36.0,43.2,35.5,30.4,86,81,79,29.67,29.51,0,0,0,0.00
2013-3-12,36.0,33.2,28.0,30.5,27.0,22.0,82,78,71,29.88,29.66,0,0,0,0.00
2013-3-19,25.3,23.9,21.7,17.6,16.5,15.7,80,73,69,29.90,29.69,0,0,0,0.00
2013-3-20,27.5,23.4,16.2,18.0,13.6,7.9,70,66,60,29.91,29.85,0,0,0,0.00
2013-3-21,21.7,16.3,14.7,15.9,9.8,7.5,79,75,70,29.89,29.82,0,0,0,0.00
2013-4-2,39.6,32.1,21.6,19.4,15.5,11.3,72,51,40,30.21,30.06,0,0,0,0.00
2013-4-3,36.3,26.1,22.1,18.8,12.7,9.6,63,57,48,30.37,30.21,0,0,0,0.00
2013-6-9,67.6,66.7,66.0,52.8,52.0,51.3,60,59,59,29.97,29.96,7,1,7,0.00
2013-6-10,72.7,65.2,60.3,65.8,59.7,51.1,89,82,59,29.95,29.74,8,0,8,1.20
2013-6-11,82.0,70.9,62.8,65.8,62.6,59.6,90,76,56,29.91,29.77,7,0,7,0.00
2013-6-12,75.9,68.3,59.5,67.4,62.3,55.7,88,81,73,29.94,29.65,6,0,6,0.47
2013-6-13,78.1,67.6,59.7,61.5,58.5,55.5,89,74,50,29.94,29.57,13,0,13,1.10
2013-6-14,78.6,66.5,56.1,58.1,54.2,49.5,85,66,43,30.08,29.94,8,0,8,0.00
2013-6-15,81.7,67.6,52.9,62.5,56.7,48.1,87,69,49,30.08,29.93,8,0,8,0.02
2013-6-16,81.7,69.9,61.0,65.8,59.6,52.2,88,71,46,29.93,29.78,18,1,18,0.63
2013-6-17,87.6,72.2,55.8,64.4,57.3,51.1,86,63,38,29.94,29.83,10,0,10,0.00
2013-6-18,74.3,64.0,54.3,56.9,51.2,41.3,84,65,43,30.07,29.89,8,0,8,0.21
2013-6-19,78.1,63.1,45.1,53.3,46.9,37.7,78,57,39,30.16,30.06,10,0,10,0.00
2013-6-20,85.3,69.1,50.9,59.1,52.5,45.1,83,58,38,30.21,30.13,8,0,8,0.00
2013-6-21,88.9,72.4,57.0,67.2,57.8,50.5,82,62,44,30.20,30.05,4,0,4,0.00
2013-6-22,89.6,75.3,66.9,72.0,63.2,55.1,74,66,55,30.09,30.00,5,0,5,0.00
2013-6-23,92.1,82.9,68.2,70.5,66.9,62.8,86,60,45,30.07,29.96,12,0,12,0.00
2013-6-24,91.2,77.9,65.5,71.0,66.0,59.3,83,68,49,30.07,29.92,6,0,6,0.16
2013-6-25,84.4,72.8,66.0,72.4,65.8,60.9,88,79,65,30.00,29.84,6,0,6,0.37
2013-6-26,83.3,73.7,64.0,70.7,65.7,60.3,89,77,63,29.90,29.75,5,0,5,0.04
2013-6-27,85.6,72.1,65.1,71.6,65.6,61.2,88,81,62,29.78,29.64,6,0,6,1.47
2013-6-28,76.5,67.3,62.4,66.7,62.0,57.8,90,83,66,29.65,29.53,10,0,10,0.08
2013-6-29,73.8,66.4,62.2,63.2,60.0,55.8,89,80,68,29.75,29.56,6,0,6,0.04
2013-6-30,80.4,68.9,60.1,62.1,57.5,49.5,84,68,48,29.96,29.74,10,0,10,0.00
2013-7-1,67.3,62.0,57.4,57.0,52.5,45.2,84,71,58,30.07,29.95,8,0,8,0.06
2013-7-2,74.5,65.6,57.7,62.3,57.3,52.1,84,75,64,30.07,30.01,7,0,7,0.02
2013-7-3,84.0,70.8,59.2,68.3,61.6,54.7,87,74,54,30.10,30.03,8,0,8,0.00
2013-7-4,81.5,73.6,65.5,66.2,62.6,58.9,86,70,52,30.14,30.07,6,0,6,0.00
2013-7-5,89.1,75.9,66.6,68.3,62.8,58.5,84,66,40,30.12,30.05,6,0,6,0.00
2013-7-6,85.8,75.3,66.0,69.8,65.9,60.7,85,73,56,30.11,30.00,6,0,6,0.29
2013-7-7,85.1,74.3,68.7,69.5,66.4,62.3,88,77,56,30.04,29.96,7,0,7,0.00
2013-7-8,84.0,72.4,67.8,74.4,66.4,62.4,88,82,72,30.06,29.99,4,0,4,0.34
2013-8-16,80.2,66.5,50.4,58.2,53.2,46.1,87,65,42,30.20,30.11,3,0,3,0.00
2013-8-17,81.0,67.4,52.2,59.9,53.8,47.2,86,64,41,30.27,30.18,7,1,7,0.00
2013-8-18,83.5,69.1,55.6,65.5,56.3,50.4,86,66,43,30.22,30.11,1,0,1,0.00
2013-8-19,83.8,69.9,55.0,62.9,55.8,49.8,85,64,39,30.12,30.04,0,0,0,0.00
2013-8-20,87.3,72.9,57.0,67.3,60.5,51.9,85,67,47,30.15,30.07,7,0,7,0.00
2013-8-21,87.4,74.2,61.7,69.9,63.9,56.8,86,71,54,30.13,30.00,6,0,6,0.00
2013-8-22,83.5,74.7,67.8,67.9,64.7,61.8,82,72,58,30.05,29.95,6,0,6,22.74
2013-8-23,83.3,71.4,56.8,63.5,56.2,51.5,85,62,36,30.20,30.04,7,0,7,0.00
2013-8-24,84.2,69.6,54.1,63.5,55.9,48.8,86,64,44,30.31,30.20,5,0,5,0.00
2013-8-25,87.6,72.6,55.6,65.0,59.0,50.3,86,64,44,30.29,30.15,7,0,7,0.00
2013-8-26,88.0,77.2,67.3,71.3,64.8,58.3,75,66,55,30.17,29.99,9,1,9,0.00
2013-8-27,84.6,76.3,70.3,74.9,70.1,65.9,87,81,72,30.01,29.83,10,0,10,23.66
2013-8-28,79.5,74.9,68.5,72.9,70.0,63.7,90,85,76,30.01,29.80,8,0,8,0.92
2013-8-29,87.3,75.2,63.9,72.3,66.4,60.5,90,76,55,30.08,30.01,5,0,5,0.00
2013-8-30,87.1,76.1,63.5,71.3,66.3,59.6,89,73,56,30.01,29.75,10,0,10,0.00
2013-8-31,82.0,74.6,67.3,69.5,65.9,61.0,85,75,61,29.86,29.76,5,0,5,0.00
2013-9-1,81.9,72.3,66.4,71.0,65.3,60.7,86,79,68,29.87,29.73,5,0,5,0.04
2013-9-2,76.6,68.5,58.5,67.0,59.4,49.8,87,73,58,29.93,29.73,11,2,11,0.00
2013-9-3,74.8,64.4,56.5,56.8,52.3,48.4,78,66,50,30.01,29.92,9,1,9,0.00
2013-9-4,80.4,67.8,51.8,62.1,56.6,47.0,88,69,51,30.08,30.01,9,1,9,0.00
2013-9-5,71.8,62.5,51.4,58.5,49.7,44.4,82,64,45,30.25,30.07,10,1,10,0.00
2013-9-6,75.6,61.1,44.4,52.5,47.4,39.1,86,63,42,30.27,30.06,8,0,8,0.00
2013-9-7,82.9,66.7,53.8,67.9,57.9,47.1,84,74,57,30.07,29.90,10,0,10,0.04
2013-9-8,74.7,67.9,56.7,63.3,57.8,47.2,85,71,54,30.09,29.94,8,0,8,0.00
2013-9-9,77.2,64.0,52.9,69.3,57.8,46.0,87,80,71,30.07,29.91,6,0,6,0.20
2013-9-10,92.3,79.5,68.2,72.8,67.8,63.8,89,70,45,30.02,29.89,13,0,13,0.00
2013-9-11,90.0,76.4,67.8,72.5,66.5,61.8,86,73,55,30.04,29.92,12,0,12,0.29
2013-9-12,77.5,69.4,64.0,63.8,60.9,54.8,90,76,50,29.96,29.86,9,1,9,0.02
2013-9-13,57.4,52.3,43.0,45.4,42.7,36.8,80,70,59,30.12,29.97,7,1,7,0.00
2013-9-14,68.4,52.6,36.3,47.8,40.8,32.2,88,67,44,30.18,30.08,4,0,4,0.00
2013-9-15,62.4,53.5,44.4,51.9,46.4,39.3,84,77,64,30.11,30.06,3,0,3,0.08
2013-9-16,61.0,54.5,46.0,50.5,47.2,39.6,87,77,59,30.36,30.12,7,1,7,0.00
2013-9-17,66.4,52.6,36.5,51.3,42.5,32.1,87,70,49,30.38,30.20,5,0,5,0.00
2013-9-18,77.2,60.7,45.3,57.7,49.5,39.6,87,69,46,30.19,30.03,8,1,8,0.00
2013-9-19,80.4,73.8,56.3,67.4,63.8,51.7,86,71,64,30.03,29.92,6,1,6,24.96
2013-9-20,79.3,70.6,66.0,69.2,64.9,62.0,89,83,66,29.92,29.74,12,0,12,0.25
2013-9-21,66.4,60.8,53.4,62.0,53.4,44.1,89,77,56,29.88,29.69,11,1,11,0.02
2013-9-22,58.8,51.9,43.5,44.1,41.3,36.6,77,67,56,30.07,29.87,7,1,8,0.00
2013-9-23,60.4,48.5,37.6,46.1,40.2,33.2,88,74,57,30.18,30.06,4,0,4,0.00
2013-9-24,69.1,53.4,40.3,52.1,43.6,35.8,88,71,51,30.14,29.99,6,0,6,0.00
2013-9-25,71.4,56.0,43.5,55.4,46.3,39.3,88,72,51,30.00,29.94,7,0,7,0.00
2013-9-26,78.1,58.4,41.5,57.7,47.0,37.0,88,69,42,30.13,30.00,4,0,4,0.00
2013-9-27,76.8,59.9,44.2,58.1,49.1,39.6,88,69,49,30.22,30.13,8,1,8,0.00
2013-9-28,77.2,62.7,48.7,60.8,52.1,43.6,89,70,47,30.19,30.01,10,1,10,0.00
2013-9-29,62.6,59.6,57.9,57.8,53.8,50.5,87,81,74,30.02,29.95,0,0,0,0.12
2013-9-30,69.4,61.1,52.2,58.9,53.1,46.5,88,76,54,30.01,29.92,6,0,6,0.00
2013-10-1,72.0,59.1,47.1,62.1,53.0,42.9,90,81,68,30.00,29.93,6,0,6,0.00
2013-10-2,79.3,65.3,52.7,60.2,53.0,45.4,90,68,38,30.08,29.94,6,0,6,0.00
2013-10-3,79.0,64.6,52.2,66.3,56.6,45.4,86,76,64,30.06,29.92,9,0,9,0.00
2013-10-4,77.2,69.5,62.6,66.4,62.6,57.3,87,79,69,30.03,29.94,10,0,10,0.00
2013-10-5,72.5,67.1,62.8,66.9,62.6,59.4,90,85,80,30.04,29.86,8,0,8,0.94
2013-10-6,69.1,64.1,53.2,64.8,59.9,49.6,90,86,79,29.86,29.64,17,0,17,0.32
2013-10-7,56.8,49.8,42.6,50.1,44.3,38.4,89,82,71,30.10,29.69,12,1,12,0.02
2013-10-8,67.1,51.7,37.9,51.6,41.7,34.5,90,71,49,30.26,30.10,7,0,7,0.00
2013-10-9,69.6,53.8,40.8,54.7,43.8,36.3,88,70,49,30.30,30.20,12,1,12,0.00
2013-10-10,70.9,54.5,42.4,56.3,44.1,37.8,88,70,46,30.22,30.12,7,0,7,0.00
2013-10-11,71.4,54.7,40.3,53.0,43.5,35.5,88,69,43,30.14,30.06,6,0,6,0.00
2013-10-12,75.4,59.6,46.2,61.4,50.0,41.5,88,72,48,30.09,30.02,9,1,9,0.00
2013-10-13,67.5,58.0,44.4,54.0,45.9,37.0,85,66,43,30.33,30.07,9,1,9,0.00
2013-10-14,64.0,50.3,39.7,45.2,39.9,35.0,87,69,49,30.39,30.25,8,0,8,0.00
2013-10-15,63.5,52.3,39.9,56.6,46.7,35.0,87,81,73,30.26,29.82,8,1,8,0.06
2013-10-16,60.6,54.4,50.0,57.1,47.8,42.9,89,79,64,29.90,29.79,14,1,14,0.03
2013-10-17,51.3,49.1,45.5,46.4,44.4,41.4,87,84,80,29.89,29.74,7,0,7,0.22
2013-10-18,60.1,49.4,38.5,47.0,40.8,34.9,89,74,50,29.90,29.83,13,1,13,0.00
2013-10-19,45.9,42.6,38.1,41.5,37.6,33.5,86,83,77,29.89,29.74,9,0,9,0.26
2013-10-20,55.9,46.3,35.4,43.1,38.5,31.6,88,75,57,29.89,29.81,14,0,14,0.02
2013-10-21,53.4,48.7,40.1,46.2,40.4,31.8,81,73,66,29.85,29.78,10,1,10,0.03
2013-10-22,48.9,40.1,29.5,33.7,29.2,23.1,80,66,51,29.89,29.82,13,1,13,0.00
2013-10-23,46.2,37.6,28.6,34.9,28.3,23.8,86,70,49,29.91,29.80,11,1,11,0.00
2013-10-24,45.9,36.5,29.7,34.9,28.7,25.1,85,74,51,30.15,29.89,14,1,14,0.00
2013-10-25,46.0,36.7,28.8,35.8,28.6,24.4,87,73,59,30.29,30.07,9,0,9,0.00
2013-10-26,48.7,41.7,34.7,36.4,30.5,26.7,83,65,55,30.07,29.76,13,1,13,0.14
2013-10-27,50.0,38.6,30.0,36.4,30.6,25.8,87,74,53,30.04,29.95,8,0,8,0.00
2013-10-28,50.7,38.7,29.1,39.7,31.1,23.7,85,74,63,30.37,30.03,7,0,7,0.00
2013-10-29,49.6,42.0,36.1,36.7,32.5,28.6,75,69,59,30.40,30.21,7,0,7,0.00
2013-10-30,61.5,46.4,30.9,47.6,36.9,26.1,86,71,54,30.21,29.94,8,1,8,0.12
2013-10-31,60.1,57.7,51.6,57.2,54.5,46.0,90,89,81,29.94,29.17,8,0,8,1.16
2013-11-1,58.8,48.1,44.4,55.9,41.7,37.2,90,78,69,29.65,29.13,19,2,19,0.04
2013-11-2,44.6,44.4,44.4,40.8,40.2,39.6,87,85,83,29.65,29.63,4,0,4,0.08